Dufftown, United Kingdom
Current Conditions -  °F | °C
As of 4:50 AM on Monday 22 Dec 2014 (Local Time) from EGQS Reporting Station
Broken Clouds Broken Clouds  
Wind Chill: 38°   Ceiling: 16000
Heat Index: 45°   Visibility: 6mi
Dew Point: 37°   Wind: 13mph
Humidity: 76%   Direction: 250°WSW
Pressure: 29.41"   Gusts: NA
Location:  57.43°N, 3.13°W
Report Text: EGQS 220450Z 25011KT 9999 SCT035 BKN160 07/03 Q0996 BLU
Loading
Personal Weather Stations






























Interactive Weather Map New forecast layout! Learn more

10-Day Weather Forecast

Advertisements
Track Severe Weather on mobile